Time,TemperatureF,DewpointF,PressureIn,WindDirection,WindDirectionDegrees,WindSpeedMPH,WindSpeedGustMPH,Humidity,HourlyPrecipIn,Conditions,Clouds,dailyrainin,SoftwareType,DateUTC
2013-05-15 00:01:00,76.3,60.5,29.55,SSW,203,2.5,8.9,58,0.00,,,0.00,WUHU216HW,2013-05-15 05:01:00,
2013-05-15 00:06:00,76.0,60.1,29.55,WNW,293,2.5,8.3,58,0.00,,,0.00,WUHU216HW,2013-05-15 05:06:00,
2013-05-15 00:11:00,75.8,60.5,29.55,West,270,2.7,5.4,59,0.00,,,0.00,WUHU216HW,2013-05-15 05:11:00,
2013-05-15 00:16:00,75.4,60.1,29.55,WSW,248,3.4,6.5,59,0.00,,,0.00,WUHU216HW,2013-05-15 05:16:00,
2013-05-15 00:21:00,75.2,59.9,29.55,WSW,248,4.3,6.5,59,0.00,,,0.00,WUHU216HW,2013-05-15 05:21:00,
2013-05-15 00:26:00,75.2,59.9,29.55,WNW,293,2.2,5.1,59,0.00,,,0.00,WUHU216HW,2013-05-15 05:26:00,
2013-05-15 00:31:00,75.2,59.9,29.56,NW,315,4.7,4.9,59,0.00,,,0.00,WUHU216HW,2013-05-15 05:31:00,
2013-05-15 00:36:00,74.7,59.9,29.56,SW,225,4.7,6.3,60,0.00,,,0.00,WUHU216HW,2013-05-15 05:36:00,
2013-05-15 00:41:00,74.9,60.1,29.55,West,270,3.1,6.3,60,0.00,,,0.00,WUHU216HW,2013-05-15 05:41:00,
2013-05-15 00:46:00,74.7,59.9,29.56,WSW,248,3.4,6.0,60,0.00,,,0.00,WUHU216HW,2013-05-15 05:46:00,
2013-05-15 00:51:00,74.3,59.6,29.56,West,270,3.4,5.4,60,0.00,,,0.00,WUHU216HW,2013-05-15 05:51:00,
2013-05-15 00:56:00,73.8,59.5,29.56,West,270,1.8,4.3,61,0.00,,,0.00,WUHU216HW,2013-05-15 05:56:00,
2013-05-15 01:01:00,73.4,59.6,29.56,WSW,248,4.7,4.7,62,0.00,,,0.00,WUHU216HW,2013-05-15 06:01:00,
2013-05-15 01:06:00,73.3,59.4,29.56,WNW,293,2.5,4.7,62,0.00,,,0.00,WUHU216HW,2013-05-15 06:06:00,
2013-05-15 01:11:00,73.4,59.1,29.56,West,270,3.4,4.7,61,0.00,,,0.00,WUHU216HW,2013-05-15 06:11:00,
2013-05-15 01:16:00,72.9,59.0,29.57,WSW,248,2.0,4.7,62,0.00,,,0.00,WUHU216HW,2013-05-15 06:16:00,
2013-05-15 01:21:00,72.7,59.4,29.57,West,270,1.8,4.7,63,0.00,,,0.00,WUHU216HW,2013-05-15 06:21:00,
2013-05-15 01:26:00,72.4,59.1,29.57,West,270,1.6,2.5,63,0.00,,,0.00,WUHU216HW,2013-05-15 06:26:00,
2013-05-15 01:31:00,72.0,59.1,29.57,West,270,2.7,3.4,64,0.00,,,0.00,WUHU216HW,2013-05-15 06:31:00,
2013-05-15 01:36:00,71.5,58.6,29.57,WSW,248,1.8,3.4,64,0.00,,,0.00,WUHU216HW,2013-05-15 06:36:00,
2013-05-15 01:41:00,71.1,58.3,29.57,West,270,2.0,3.4,64,0.00,,,0.00,WUHU216HW,2013-05-15 06:41:00,
2013-05-15 01:46:00,70.9,58.2,29.57,West,270,2.5,3.4,64,0.00,,,0.00,WUHU216HW,2013-05-15 06:46:00,
2013-05-15 01:51:00,71.1,57.9,29.58,WSW,248,1.8,3.4,63,0.00,,,0.00,WUHU216HW,2013-05-15 06:51:00,
2013-05-15 01:56:00,71.3,57.6,29.58,West,270,3.8,4.7,62,0.00,,,0.00,WUHU216HW,2013-05-15 06:56:00,
2013-05-15 02:01:00,71.6,57.1,29.58,WSW,248,5.4,5.4,60,0.00,,,0.00,WUHU216HW,2013-05-15 07:01:00,
2013-05-15 02:06:00,72.0,56.9,29.58,West,270,4.0,5.8,59,0.00,,,0.00,WUHU216HW,2013-05-15 07:06:00,
2013-05-15 02:11:00,71.8,56.7,29.58,West,270,2.5,5.8,59,0.00,,,0.00,WUHU216HW,2013-05-15 07:11:00,
2013-05-15 02:16:00,71.6,56.5,29.59,WNW,293,3.4,5.4,59,0.00,,,0.00,WUHU216HW,2013-05-15 07:16:00,
2013-05-15 02:21:00,71.3,56.3,29.59,West,270,3.1,4.5,59,0.00,,,0.00,WUHU216HW,2013-05-15 07:21:00,
2013-05-15 02:26:00,71.1,56.1,29.60,West,270,1.1,4.0,59,0.00,,,0.00,WUHU216HW,2013-05-15 07:26:00,
2013-05-15 02:31:00,70.6,55.6,29.60,NW,315,3.4,4.0,59,0.00,,,0.00,WUHU216HW,2013-05-15 07:31:00,
2013-05-15 02:36:00,70.2,55.3,29.60,WNW,293,4.0,4.0,59,0.00,,,0.00,WUHU216HW,2013-05-15 07:36:00,
2013-05-15 02:41:00,69.8,54.9,29.60,NW,315,2.0,4.0,59,0.00,,,0.00,WUHU216HW,2013-05-15 07:41:00,
2013-05-15 02:46:00,69.3,54.4,29.60,NW,315,2.5,4.0,59,0.00,,,0.00,WUHU216HW,2013-05-15 07:46:00,
2013-05-15 02:51:00,69.5,53.6,29.61,NW,315,2.7,4.0,57,0.00,,,0.00,WUHU216HW,2013-05-15 07:51:00,
2013-05-15 02:56:00,69.5,52.1,29.61,WNW,293,4.7,4.7,54,0.00,,,0.00,WUHU216HW,2013-05-15 07:56:00,
2013-05-15 03:01:00,69.7,51.8,29.61,WNW,293,3.6,5.4,53,0.00,,,0.00,WUHU216HW,2013-05-15 08:01:00,
2013-05-15 03:06:00,69.7,50.8,29.61,West,270,4.9,6.3,51,0.00,,,0.00,WUHU216HW,2013-05-15 08:06:00,
2013-05-15 03:11:00,69.7,50.2,29.61,NNW,338,4.0,6.3,50,0.00,,,0.00,WUHU216HW,2013-05-15 08:11:00,
2013-05-15 03:16:00,69.5,48.9,29.61,NW,315,2.2,5.4,48,0.00,,,0.00,WUHU216HW,2013-05-15 08:16:00,
2013-05-15 03:21:00,69.5,47.7,29.61,NW,315,4.0,5.4,46,0.00,,,0.00,WUHU216HW,2013-05-15 08:21:00,
2013-05-15 03:26:00,69.7,47.3,29.62,WNW,293,2.7,5.4,45,0.00,,,0.00,WUHU216HW,2013-05-15 08:26:00,
2013-05-15 03:31:00,69.7,47.3,29.62,WNW,293,3.1,5.4,45,0.00,,,0.00,WUHU216HW,2013-05-15 08:31:00,
2013-05-15 03:36:00,69.5,46.5,29.62,West,270,3.6,5.1,44,0.00,,,0.00,WUHU216HW,2013-05-15 08:36:00,
2013-05-15 03:41:00,69.1,47.3,29.62,West,270,1.6,4.7,46,0.00,,,0.00,WUHU216HW,2013-05-15 08:41:00,
2013-05-15 03:46:00,68.6,46.3,29.63,West,270,1.1,3.6,45,0.00,,,0.00,WUHU216HW,2013-05-15 08:46:00,
2013-05-15 03:51:00,68.4,46.2,29.63,West,270,2.9,3.6,45,0.00,,,0.00,WUHU216HW,2013-05-15 08:51:00,
2013-05-15 03:56:00,68.2,45.4,29.63,WNW,293,3.4,4.0,44,0.00,,,0.00,WUHU216HW,2013-05-15 08:56:00,
2013-05-15 04:01:00,68.4,44.9,29.63,NW,315,2.9,4.9,43,0.00,,,0.00,WUHU216HW,2013-05-15 09:01:00,
2013-05-15 04:06:00,67.7,45.5,29.64,WNW,293,3.8,4.9,45,0.00,,,0.00,WUHU216HW,2013-05-15 09:06:00,
2013-05-15 04:11:00,66.8,44.6,29.64,NW,315,3.1,4.0,45,0.00,,,0.00,WUHU216HW,2013-05-15 09:11:00,
2013-05-15 04:16:00,66.2,46.0,29.64,NW,315,3.4,4.0,48,0.00,,,0.00,WUHU216HW,2013-05-15 09:16:00,
2013-05-15 04:21:00,65.7,45.5,29.64,NW,315,2.9,7.8,48,0.00,,,0.00,WUHU216HW,2013-05-15 09:21:00,
2013-05-15 04:26:00,65.2,45.6,29.64,NW,315,5.6,7.8,49,0.00,,,0.00,WUHU216HW,2013-05-15 09:26:00,
2013-05-15 04:31:00,65.5,45.3,29.65,NW,315,5.8,9.4,48,0.00,,,0.00,WUHU216HW,2013-05-15 09:31:00,
2013-05-15 04:36:00,65.9,45.0,29.65,NW,315,7.2,9.4,47,0.00,,,0.00,WUHU216HW,2013-05-15 09:36:00,
2013-05-15 04:41:00,65.7,45.5,29.65,NW,315,4.0,7.4,48,0.00,,,0.00,WUHU216HW,2013-05-15 09:41:00,
2013-05-15 04:46:00,65.2,44.9,29.65,NW,315,4.0,7.2,48,0.00,,,0.00,WUHU216HW,2013-05-15 09:46:00,
2013-05-15 04:51:00,65.2,44.9,29.66,NW,315,2.5,5.4,48,0.00,,,0.00,WUHU216HW,2013-05-15 09:51:00,
2013-05-15 04:56:00,65.5,44.6,29.66,NW,315,3.6,6.5,47,0.00,,,0.00,WUHU216HW,2013-05-15 09:56:00,
2013-05-15 05:01:00,66.2,44.2,29.66,NW,315,4.7,6.5,45,0.00,,,0.00,WUHU216HW,2013-05-15 10:01:00,
2013-05-15 05:06:00,66.2,44.8,29.67,NW,315,3.8,5.4,46,0.00,,,0.00,WUHU216HW,2013-05-15 10:06:00,
2013-05-15 05:11:00,65.5,44.6,29.67,NNW,338,4.0,5.4,47,0.00,,,0.00,WUHU216HW,2013-05-15 10:11:00,
2013-05-15 05:16:00,64.1,45.0,29.67,NW,315,2.7,4.7,50,0.00,,,0.00,WUHU216HW,2013-05-15 10:16:00,
2013-05-15 05:21:00,62.3,45.8,29.67,NW,315,3.1,4.0,55,0.00,,,0.00,WUHU216HW,2013-05-15 10:21:00,
2013-05-15 05:26:00,61.6,45.7,29.67,NW,315,2.5,3.4,56,0.00,,,0.00,WUHU216HW,2013-05-15 10:26:00,
2013-05-15 05:31:00,61.2,45.8,29.67,NW,315,2.2,3.4,57,0.00,,,0.00,WUHU216HW,2013-05-15 10:31:00,
2013-05-15 05:36:00,60.8,46.0,29.67,NW,315,2.0,3.4,58,0.00,,,0.00,WUHU216HW,2013-05-15 10:36:00,
2013-05-15 05:42:00,60.5,45.6,29.68,NNW,338,2.5,2.9,58,0.00,,,0.00,WUHU216HW,2013-05-15 10:42:00,
2013-05-15 05:47:00,60.3,45.5,29.68,NNW,338,1.8,3.4,58,0.00,,,0.00,WUHU216HW,2013-05-15 10:47:00,
2013-05-15 05:52:00,60.5,46.2,29.68,NW,315,2.5,3.6,59,0.00,,,0.00,WUHU216HW,2013-05-15 10:52:00,
2013-05-15 05:57:00,61.9,46.5,29.69,NNW,338,3.4,4.0,57,0.00,,,0.00,WUHU216HW,2013-05-15 10:57:00,
2013-05-15 06:02:00,62.6,46.6,29.69,NW,315,2.5,4.0,56,0.00,,,0.00,WUHU216HW,2013-05-15 11:02:00,
2013-05-15 06:07:00,62.8,46.4,29.70,NW,315,1.3,3.6,55,0.00,,,0.00,WUHU216HW,2013-05-15 11:07:00,
2013-05-15 06:12:00,63.2,46.2,29.70,NNW,338,1.1,4.0,54,0.00,,,0.00,WUHU216HW,2013-05-15 11:12:00,
2013-05-15 06:17:00,64.3,47.2,29.70,North,0,0.7,4.0,54,0.00,,,0.00,WUHU216HW,2013-05-15 11:17:00,
2013-05-15 06:22:00,65.5,47.9,29.70,North,0,0.2,2.0,53,0.00,,,0.00,WUHU216HW,2013-05-15 11:22:00,
2013-05-15 06:27:00,66.6,48.4,29.71,NNW,338,0.4,1.3,52,0.00,,,0.00,WUHU216HW,2013-05-15 11:27:00,
2013-05-15 06:33:00,67.9,49.2,29.72,NNW,338,1.8,1.8,51,0.00,,,0.00,WUHU216HW,2013-05-15 11:33:00,
2013-05-15 06:38:00,67.9,49.6,29.72,North,0,1.3,5.1,52,0.00,,,0.00,WUHU216HW,2013-05-15 11:38:00,
2013-05-15 06:43:00,68.0,48.8,29.72,WNW,293,2.5,5.1,50,0.00,,,0.00,WUHU216HW,2013-05-15 11:43:00,
2013-05-15 06:48:00,68.0,49.2,29.72,NNW,338,1.3,7.2,51,0.00,,,0.00,WUHU216HW,2013-05-15 11:48:00,
2013-05-15 06:53:00,68.4,48.5,29.72,NW,315,3.1,7.2,49,0.00,,,0.00,WUHU216HW,2013-05-15 11:53:00,
2013-05-15 06:58:00,68.4,49.6,29.73,North,0,4.7,6.0,51,0.00,,,0.00,WUHU216HW,2013-05-15 11:58:00,
2013-05-15 07:03:00,68.6,48.1,29.73,NW,315,5.4,7.4,48,0.00,,,0.00,WUHU216HW,2013-05-15 12:03:00,
2013-05-15 07:09:00,67.7,49.0,29.73,NW,315,5.8,7.4,51,0.00,,,0.00,WUHU216HW,2013-05-15 12:09:00,
2013-05-15 07:14:00,67.3,49.2,29.74,NNW,338,7.4,7.8,52,0.00,,,0.00,WUHU216HW,2013-05-15 12:14:00,
2013-05-15 07:19:00,67.3,49.2,29.75,NW,315,8.5,10.7,52,0.00,,,0.00,WUHU216HW,2013-05-15 12:19:00,
2013-05-15 07:24:00,67.3,49.2,29.75,NW,315,9.2,10.7,52,0.00,,,0.00,WUHU216HW,2013-05-15 12:24:00,
2013-05-15 07:29:00,67.3,49.2,29.75,NW,315,9.2,11.4,52,0.00,,,0.00,WUHU216HW,2013-05-15 12:29:00,
2013-05-15 07:34:00,67.1,49.0,29.76,NW,315,9.8,14.1,52,0.00,,,0.00,WUHU216HW,2013-05-15 12:34:00,
2013-05-15 07:39:00,67.1,49.4,29.75,NW,315,6.7,14.1,53,0.00,,,0.00,WUHU216HW,2013-05-15 12:39:00,
2013-05-15 07:44:00,67.1,49.4,29.76,NW,315,6.0,13.4,53,0.00,,,0.00,WUHU216HW,2013-05-15 12:44:00,
2013-05-15 07:49:00,66.8,49.6,29.76,NW,315,6.9,13.4,54,0.00,,,0.00,WUHU216HW,2013-05-15 12:49:00,
2013-05-15 07:54:00,66.4,49.2,29.76,NW,315,8.7,11.2,54,0.00,,,0.00,WUHU216HW,2013-05-15 12:54:00,
2013-05-15 07:59:00,66.4,49.2,29.76,NW,315,8.5,12.1,54,0.00,,,0.00,WUHU216HW,2013-05-15 12:59:00,
2013-05-15 08:05:00,66.6,49.4,29.77,NNW,338,7.2,13.4,54,0.00,,,0.00,WUHU216HW,2013-05-15 13:05:00,
2013-05-15 08:10:00,67.0,50.8,29.77,NNW,338,5.8,13.4,56,0.00,,,0.00,WUHU216HW,2013-05-15 13:10:00,
2013-05-15 08:15:00,67.3,49.6,29.78,NW,315,12.5,14.3,53,0.00,,,0.00,WUHU216HW,2013-05-15 13:15:00,
2013-05-15 08:20:00,67.0,49.8,29.78,NNW,338,12.8,14.3,54,0.00,,,0.00,WUHU216HW,2013-05-15 13:20:00,
2013-05-15 08:26:00,67.0,49.8,29.79,NW,315,10.1,14.3,54,0.00,,,0.00,WUHU216HW,2013-05-15 13:26:00,
2013-05-15 08:31:00,66.6,49.4,29.79,NW,315,10.5,14.3,54,0.00,,,0.00,WUHU216HW,2013-05-15 13:31:00,
2013-05-15 08:36:00,66.8,50.0,29.79,North,0,5.6,14.3,55,0.00,,,0.00,WUHU216HW,2013-05-15 13:36:00,
2013-05-15 08:41:00,67.1,50.0,29.79,NW,315,11.4,11.4,54,0.00,,,0.00,WUHU216HW,2013-05-15 13:41:00,
2013-05-15 08:46:00,67.1,49.4,29.79,WNW,293,7.2,11.4,53,0.00,,,0.00,WUHU216HW,2013-05-15 13:46:00,
2013-05-15 08:51:00,67.3,50.0,29.79,NNW,338,9.2,11.0,54,0.00,,,0.00,WUHU216HW,2013-05-15 13:51:00,
2013-05-15 08:56:00,67.3,50.6,29.80,NNE,23,8.5,11.0,55,0.00,,,0.00,WUHU216HW,2013-05-15 13:56:00,
2013-05-15 09:02:00,67.3,50.0,29.80,NW,315,7.6,9.8,54,0.00,,,0.00,WUHU216HW,2013-05-15 14:02:00,
2013-05-15 09:07:00,67.7,49.4,29.80,NNW,338,8.5,10.5,52,0.00,,,0.00,WUHU216HW,2013-05-15 14:07:00,
2013-05-15 09:12:00,67.7,50.0,29.80,North,0,5.4,11.9,53,0.00,,,0.00,WUHU216HW,2013-05-15 14:12:00,
2013-05-15 09:17:00,67.7,50.4,29.80,NW,315,8.3,11.9,54,0.00,,,0.00,WUHU216HW,2013-05-15 14:17:00,
2013-05-15 09:23:00,67.7,49.4,29.80,NNW,338,10.1,11.4,52,0.00,,,0.00,WUHU216HW,2013-05-15 14:23:00,
2013-05-15 09:28:00,67.5,50.2,29.80,NW,315,9.2,11.4,54,0.00,,,0.00,WUHU216HW,2013-05-15 14:28:00,
2013-05-15 09:33:00,67.9,49.6,29.80,NW,315,9.2,10.5,52,0.00,,,0.00,WUHU216HW,2013-05-15 14:33:00,
2013-05-15 09:38:00,68.6,49.8,29.80,NNW,338,7.8,12.1,51,0.00,,,0.00,WUHU216HW,2013-05-15 14:38:00,
2013-05-15 09:43:00,68.8,48.9,29.81,NNW,338,8.9,12.1,49,0.00,,,0.00,WUHU216HW,2013-05-15 14:43:00,
2013-05-15 09:48:00,68.8,51.0,29.80,NNW,338,6.9,11.4,53,0.00,,,0.00,WUHU216HW,2013-05-15 14:48:00,
2013-05-15 09:54:00,69.1,49.8,29.80,NNW,338,9.6,11.6,50,0.00,,,0.00,WUHU216HW,2013-05-15 14:54:00,
2013-05-15 09:59:00,69.1,50.2,29.80,NNW,338,8.9,11.6,51,0.00,,,0.00,WUHU216HW,2013-05-15 14:59:00,
2013-05-15 10:05:00,69.7,49.1,29.80,NNW,338,12.8,12.8,48,0.00,,,0.00,WUHU216HW,2013-05-15 15:05:00,
2013-05-15 10:10:00,70.0,49.4,29.80,NNW,338,6.5,12.8,48,0.00,,,0.00,WUHU216HW,2013-05-15 15:10:00,
2013-05-15 10:15:00,70.2,50.8,29.81,NNW,338,6.9,12.8,50,0.00,,,0.00,WUHU216HW,2013-05-15 15:15:00,
2013-05-15 10:20:00,70.4,47.9,29.81,North,0,12.8,12.8,45,0.00,,,0.00,WUHU216HW,2013-05-15 15:20:00,
2013-05-15 10:25:00,70.2,50.1,29.82,NNW,338,3.8,12.8,49,0.00,,,0.00,WUHU216HW,2013-05-15 15:25:00,
2013-05-15 10:30:00,70.7,49.4,29.82,NNW,338,5.4,10.7,47,0.00,,,0.00,WUHU216HW,2013-05-15 15:30:00,
2013-05-15 10:35:00,71.1,50.3,29.80,NW,315,6.0,11.0,48,0.00,,,0.00,WUHU216HW,2013-05-15 15:35:00,
2013-05-15 10:40:00,71.5,51.3,29.82,NNW,338,3.6,11.0,49,0.00,,,0.00,WUHU216HW,2013-05-15 15:40:00,
2013-05-15 10:46:00,71.3,50.0,29.82,North,0,6.3,9.8,47,0.00,,,0.00,WUHU216HW,2013-05-15 15:46:00,
2013-05-15 10:51:00,71.6,50.9,29.82,NNE,23,6.9,11.0,48,0.00,,,0.00,WUHU216HW,2013-05-15 15:51:00,
2013-05-15 10:56:00,71.8,49.8,29.83,NNW,338,6.5,11.0,46,0.00,,,0.00,WUHU216HW,2013-05-15 15:56:00,
2013-05-15 11:01:00,71.8,50.4,29.83,NNW,338,5.8,10.1,47,0.00,,,0.00,WUHU216HW,2013-05-15 16:01:00,
2013-05-15 11:06:00,72.0,48.8,29.83,NNW,338,5.8,10.3,44,0.00,,,0.00,WUHU216HW,2013-05-15 16:06:00,
2013-05-15 11:11:00,72.0,49.4,29.82,NNW,338,6.3,10.3,45,0.00,,,0.00,WUHU216HW,2013-05-15 16:11:00,
2013-05-15 11:16:00,72.0,48.8,29.83,NNW,338,4.7,9.6,44,0.00,,,0.00,WUHU216HW,2013-05-15 16:16:00,
2013-05-15 11:22:00,72.2,46.5,29.82,North,0,5.4,9.6,40,0.00,,,0.00,WUHU216HW,2013-05-15 16:22:00,
2013-05-15 11:27:00,72.5,49.2,29.83,NW,315,6.3,11.4,44,0.00,,,0.00,WUHU216HW,2013-05-15 16:27:00,
2013-05-15 11:32:00,72.9,46.4,29.83,North,0,7.4,11.4,39,0.00,,,0.00,WUHU216HW,2013-05-15 16:32:00,
2013-05-15 11:37:00,73.1,49.1,29.83,North,0,4.0,10.5,43,0.00,,,0.00,WUHU216HW,2013-05-15 16:37:00,
2013-05-15 11:43:00,73.1,47.3,29.83,NNW,338,5.4,10.5,40,0.00,,,0.00,WUHU216HW,2013-05-15 16:43:00,
2013-05-15 11:48:00,73.1,46.6,29.83,North,0,10.7,10.7,39,0.00,,,0.00,WUHU216HW,2013-05-15 16:48:00,
2013-05-15 11:53:00,73.3,47.5,29.83,NW,315,4.3,10.7,40,0.00,,,0.00,WUHU216HW,2013-05-15 16:53:00,
2013-05-15 11:58:00,73.3,46.8,29.83,NW,315,3.6,9.2,39,0.00,,,0.00,WUHU216HW,2013-05-15 16:58:00,
2013-05-15 12:03:00,73.6,45.6,29.83,NNW,338,4.0,7.8,37,0.00,,,0.00,WUHU216HW,2013-05-15 17:03:00,
2013-05-15 12:08:00,73.8,46.5,29.82,NW,315,4.5,7.8,38,0.00,,,0.00,WUHU216HW,2013-05-15 17:08:00,
2013-05-15 12:13:00,74.0,46.7,29.82,NW,315,4.7,8.7,38,0.00,,,0.00,WUHU216HW,2013-05-15 17:13:00,
2013-05-15 12:18:00,74.3,46.3,29.82,NW,315,6.0,8.7,37,0.00,,,0.00,WUHU216HW,2013-05-15 17:18:00,
2013-05-15 12:24:00,74.7,46.5,29.82,NNW,338,8.1,8.1,37,0.00,,,0.00,WUHU216HW,2013-05-15 17:24:00,
2013-05-15 12:29:00,74.7,46.5,29.83,NW,315,5.4,9.8,37,0.00,,,0.00,WUHU216HW,2013-05-15 17:29:00,
2013-05-15 12:34:00,74.7,45.1,29.82,NW,315,4.7,9.8,35,0.00,,,0.00,WUHU216HW,2013-05-15 17:34:00,
2013-05-15 12:39:00,74.3,48.5,29.82,NW,315,6.7,8.3,40,0.00,,,0.00,WUHU216HW,2013-05-15 17:39:00,
2013-05-15 12:44:00,74.7,45.1,29.82,NW,315,3.8,8.3,35,0.00,,,0.00,WUHU216HW,2013-05-15 17:44:00,
2013-05-15 12:49:00,75.1,45.4,29.83,NNW,338,8.1,10.5,35,0.00,,,0.00,WUHU216HW,2013-05-15 17:49:00,
2013-05-15 12:55:00,74.3,44.7,29.83,NNW,338,4.9,10.5,35,0.00,,,0.00,WUHU216HW,2013-05-15 17:55:00,
2013-05-15 13:00:00,74.2,45.4,29.83,NW,315,8.9,9.4,36,0.00,,,0.00,WUHU216HW,2013-05-15 18:00:00,
2013-05-15 13:05:00,74.2,43.8,29.83,WNW,293,5.6,9.4,34,0.00,,,0.00,WUHU216HW,2013-05-15 18:05:00,
2013-05-15 13:10:00,74.9,44.5,29.83,NW,315,5.4,8.9,34,0.00,,,0.00,WUHU216HW,2013-05-15 18:10:00,
2013-05-15 13:15:00,74.9,46.0,29.83,NW,315,6.3,6.7,36,0.00,,,0.00,WUHU216HW,2013-05-15 18:15:00,
2013-05-15 13:20:00,75.2,44.0,29.83,West,270,2.5,6.3,33,0.00,,,0.00,WUHU216HW,2013-05-15 18:20:00,
2013-05-15 13:25:00,75.6,45.9,29.83,WNW,293,5.6,6.3,35,0.00,,,0.00,WUHU216HW,2013-05-15 18:25:00,
2013-05-15 13:30:00,75.6,44.4,29.82,NNW,338,3.4,7.8,33,0.00,,,0.00,WUHU216HW,2013-05-15 18:30:00,
2013-05-15 13:36:00,76.0,43.9,29.82,WNW,293,2.0,7.8,32,0.00,,,0.00,WUHU216HW,2013-05-15 18:36:00,
2013-05-15 13:41:00,75.8,42.2,29.82,West,270,4.7,8.5,30,0.00,,,0.00,WUHU216HW,2013-05-15 18:41:00,
2013-05-15 13:46:00,75.1,41.6,29.83,NW,315,6.9,10.5,30,0.00,,,0.00,WUHU216HW,2013-05-15 18:46:00,
2013-05-15 13:51:00,75.1,41.6,29.83,NNW,338,6.9,10.5,30,0.00,,,0.00,WUHU216HW,2013-05-15 18:51:00,
2013-05-15 13:56:00,75.6,41.0,29.82,NNW,338,4.0,7.8,29,0.00,,,0.00,WUHU216HW,2013-05-15 18:56:00,
2013-05-15 14:01:00,76.3,41.7,29.82,West,270,5.6,7.4,29,0.00,,,0.00,WUHU216HW,2013-05-15 19:01:00,
2013-05-15 14:06:00,76.7,38.9,29.82,West,270,3.1,6.0,26,0.00,,,0.00,WUHU216HW,2013-05-15 19:06:00,
2013-05-15 14:11:00,77.6,42.8,29.81,NW,315,2.9,6.7,29,0.00,,,0.00,WUHU216HW,2013-05-15 19:11:00,
2013-05-15 14:16:00,77.6,41.8,29.81,NW,315,6.7,6.7,28,0.00,,,0.00,WUHU216HW,2013-05-15 19:16:00,
2013-05-15 14:21:00,77.4,42.7,29.81,NW,315,3.4,7.6,29,0.00,,,0.00,WUHU216HW,2013-05-15 19:21:00,
2013-05-15 14:27:00,78.1,43.2,29.80,NNW,338,4.7,7.6,29,0.00,,,0.00,WUHU216HW,2013-05-15 19:27:00,
2013-05-15 14:32:00,78.5,42.5,29.80,West,270,2.0,8.3,28,0.00,,,0.00,WUHU216HW,2013-05-15 19:32:00,
2013-05-15 14:37:00,79.2,41.0,29.80,WSW,248,4.5,6.3,26,0.00,,,0.00,WUHU216HW,2013-05-15 19:37:00,
2013-05-15 14:42:00,78.5,39.3,29.81,West,270,0.4,7.8,25,0.00,,,0.00,WUHU216HW,2013-05-15 19:42:00,
2013-05-15 14:47:00,78.5,40.3,29.81,West,270,2.9,7.8,26,0.00,,,0.00,WUHU216HW,2013-05-15 19:47:00,
2013-05-15 14:52:00,78.8,44.8,29.80,NW,315,3.1,5.4,30,0.00,,,0.00,WUHU216HW,2013-05-15 19:52:00,
2013-05-15 14:57:00,77.8,44.7,29.80,NW,315,4.3,4.7,31,0.00,,,0.00,WUHU216HW,2013-05-15 19:57:00,
2013-05-15 15:02:00,76.7,43.0,29.80,North,0,2.2,6.3,30,0.00,,,0.00,WUHU216HW,2013-05-15 20:02:00,
2013-05-15 15:08:00,76.7,43.0,29.80,WNW,293,1.8,6.3,30,0.00,,,0.00,WUHU216HW,2013-05-15 20:08:00,
2013-05-15 15:13:00,77.9,44.8,29.80,NNW,338,1.8,5.4,31,0.00,,,0.00,WUHU216HW,2013-05-15 20:13:00,
2013-05-15 15:18:00,78.5,43.5,29.80,NW,315,4.0,7.4,29,0.00,,,0.00,WUHU216HW,2013-05-15 20:18:00,
2013-05-15 15:23:00,78.1,45.8,29.80,NW,315,4.3,7.6,32,0.00,,,0.00,WUHU216HW,2013-05-15 20:23:00,
2013-05-15 15:29:00,77.8,42.9,29.80,WNW,293,2.7,8.5,29,0.00,,,0.00,WUHU216HW,2013-05-15 20:29:00,
2013-05-15 15:34:00,78.3,43.4,29.80,WSW,248,3.8,8.5,29,0.00,,,0.00,WUHU216HW,2013-05-15 20:34:00,
2013-05-15 15:39:00,77.8,43.9,29.80,NW,315,3.8,6.9,30,0.00,,,0.00,WUHU216HW,2013-05-15 20:39:00,
2013-05-15 15:45:00,76.9,42.2,29.80,WNW,293,4.9,9.2,29,0.00,,,0.00,WUHU216HW,2013-05-15 20:45:00,
2013-05-15 15:50:00,76.7,43.0,29.79,WSW,248,2.5,9.2,30,0.00,,,0.00,WUHU216HW,2013-05-15 20:50:00,
2013-05-15 15:55:00,76.9,43.2,29.78,WSW,248,3.4,6.7,30,0.00,,,0.00,WUHU216HW,2013-05-15 20:55:00,
2013-05-15 16:01:00,77.0,44.1,29.79,NW,315,3.4,5.4,31,0.00,,,0.00,WUHU216HW,2013-05-15 21:01:00,
2013-05-15 16:06:00,76.7,43.0,29.78,WNW,293,4.3,5.4,30,0.00,,,0.00,WUHU216HW,2013-05-15 21:06:00,
2013-05-15 16:11:00,76.5,42.9,29.78,West,270,2.7,5.4,30,0.00,,,0.00,WUHU216HW,2013-05-15 21:11:00,
2013-05-15 16:16:00,76.3,44.3,29.78,West,270,2.5,5.4,32,0.00,,,0.00,WUHU216HW,2013-05-15 21:16:00,
2013-05-15 16:21:00,76.1,43.3,29.78,West,270,4.0,7.4,31,0.00,,,0.00,WUHU216HW,2013-05-15 21:21:00,
2013-05-15 16:26:00,76.0,43.2,29.78,NW,315,4.3,7.4,31,0.00,,,0.00,WUHU216HW,2013-05-15 21:26:00,
2013-05-15 16:31:00,75.8,45.3,29.78,NNW,338,2.7,4.9,34,0.00,,,0.00,WUHU216HW,2013-05-15 21:31:00,
2013-05-15 16:36:00,75.2,45.5,29.79,NNW,338,3.8,5.4,35,0.00,,,0.00,WUHU216HW,2013-05-15 21:36:00,
2013-05-15 16:42:00,75.4,44.9,29.79,NNW,338,6.3,6.9,34,0.00,,,0.00,WUHU216HW,2013-05-15 21:42:00,
2013-05-15 16:47:00,76.7,46.1,29.80,WNW,293,6.7,7.4,34,0.00,,,0.00,WUHU216HW,2013-05-15 21:47:00,
2013-05-15 16:52:00,77.0,45.6,29.79,NNW,338,7.4,7.8,33,0.00,,,0.00,WUHU216HW,2013-05-15 21:52:00,
2013-05-15 16:57:00,76.5,44.4,29.79,NNW,338,6.7,8.3,32,0.00,,,0.00,WUHU216HW,2013-05-15 21:57:00,
2013-05-15 17:02:00,76.7,46.1,29.78,NW,315,5.8,8.3,34,0.00,,,0.00,WUHU216HW,2013-05-15 22:02:00,
2013-05-15 17:07:00,77.2,45.0,29.78,WNW,293,5.8,7.6,32,0.00,,,0.00,WUHU216HW,2013-05-15 22:07:00,
2013-05-15 17:12:00,78.1,47.4,29.78,NNW,338,4.9,7.6,34,0.00,,,0.00,WUHU216HW,2013-05-15 22:12:00,
2013-05-15 17:17:00,78.7,43.7,29.78,North,0,4.9,7.2,29,0.00,,,0.00,WUHU216HW,2013-05-15 22:17:00,
2013-05-15 17:22:00,77.8,42.9,29.78,West,270,4.0,7.8,29,0.00,,,0.00,WUHU216HW,2013-05-15 22:22:00,
2013-05-15 17:27:00,77.9,45.6,29.78,NW,315,4.9,7.8,32,0.00,,,0.00,WUHU216HW,2013-05-15 22:27:00,
2013-05-15 17:32:00,77.0,44.1,29.78,NNW,338,3.1,6.3,31,0.00,,,0.00,WUHU216HW,2013-05-15 22:32:00,
2013-05-15 17:38:00,77.6,45.4,29.78,NW,315,5.1,7.8,32,0.00,,,0.00,WUHU216HW,2013-05-15 22:38:00,
2013-05-15 17:43:00,78.1,45.0,29.78,NNW,338,6.3,7.8,31,0.00,,,0.00,WUHU216HW,2013-05-15 22:43:00,
2013-05-15 17:48:00,78.5,46.1,29.78,NNW,338,4.7,7.6,32,0.00,,,0.00,WUHU216HW,2013-05-15 22:48:00,
2013-05-15 17:53:00,78.5,46.1,29.78,NW,315,4.5,7.6,32,0.00,,,0.00,WUHU216HW,2013-05-15 22:53:00,
2013-05-15 17:58:00,78.1,45.8,29.78,NW,315,6.0,6.9,32,0.00,,,0.00,WUHU216HW,2013-05-15 22:58:00,
2013-05-15 18:04:00,77.8,44.7,29.78,NW,315,4.7,7.8,31,0.00,,,0.00,WUHU216HW,2013-05-15 23:04:00,
2013-05-15 18:09:00,78.1,46.5,29.78,NW,315,4.0,7.8,33,0.00,,,0.00,WUHU216HW,2013-05-15 23:09:00,
2013-05-15 18:14:00,78.7,45.5,29.78,WNW,293,4.5,6.3,31,0.00,,,0.00,WUHU216HW,2013-05-15 23:14:00,
2013-05-15 18:19:00,78.7,45.5,29.78,NW,315,5.4,7.4,31,0.00,,,0.00,WUHU216HW,2013-05-15 23:19:00,
2013-05-15 18:24:00,78.3,44.4,29.78,NW,315,4.3,7.4,30,0.00,,,0.00,WUHU216HW,2013-05-15 23:24:00,
2013-05-15 18:29:00,78.5,45.3,29.78,NW,315,4.3,6.9,31,0.00,,,0.00,WUHU216HW,2013-05-15 23:29:00,
2013-05-15 18:35:00,77.8,43.9,29.78,NW,315,5.1,7.8,30,0.00,,,0.00,WUHU216HW,2013-05-15 23:35:00,
2013-05-15 18:40:00,77.6,44.6,29.78,WNW,293,7.6,7.8,31,0.00,,,0.00,WUHU216HW,2013-05-15 23:40:00,
2013-05-15 18:45:00,77.2,44.3,29.78,WNW,293,5.6,7.6,31,0.00,,,0.00,WUHU216HW,2013-05-15 23:45:00,
2013-05-15 18:50:00,77.4,46.0,29.79,NW,315,3.1,7.4,33,0.00,,,0.00,WUHU216HW,2013-05-15 23:50:00,
2013-05-15 18:55:00,77.0,44.9,29.79,NW,315,4.5,6.9,32,0.00,,,0.00,WUHU216HW,2013-05-15 23:55:00,
2013-05-15 19:01:00,76.7,43.8,29.79,WNW,293,4.7,6.3,31,0.00,,,0.00,WUHU216HW,2013-05-16 00:01:00,
2013-05-15 19:06:00,76.5,43.7,29.79,NW,315,8.1,8.1,31,0.00,,,0.00,WUHU216HW,2013-05-16 00:06:00,
2013-05-15 19:11:00,76.0,42.4,29.79,NW,315,4.7,8.1,30,0.00,,,0.00,WUHU216HW,2013-05-16 00:11:00,
2013-05-15 19:16:00,75.2,44.8,29.80,NW,315,4.9,6.0,34,0.00,,,0.00,WUHU216HW,2013-05-16 00:16:00,
2013-05-15 19:21:00,74.5,43.4,29.80,NW,315,4.5,5.4,33,0.00,,,0.00,WUHU216HW,2013-05-16 00:21:00,
2013-05-15 19:26:00,74.2,43.8,29.80,NW,315,3.4,5.1,34,0.00,,,0.00,WUHU216HW,2013-05-16 00:26:00,
2013-05-15 19:31:00,73.8,43.5,29.80,NW,315,3.1,4.5,34,0.00,,,0.00,WUHU216HW,2013-05-16 00:31:00,
2013-05-15 19:36:00,73.3,42.3,29.80,NW,315,4.9,5.6,33,0.00,,,0.00,WUHU216HW,2013-05-16 00:36:00,
2013-05-15 19:42:00,72.7,42.6,29.80,NW,315,3.4,5.6,34,0.00,,,0.00,WUHU216HW,2013-05-16 00:42:00,
2013-05-15 19:47:00,72.0,42.7,29.80,NW,315,2.7,5.4,35,0.00,,,0.00,WUHU216HW,2013-05-16 00:47:00,
2013-05-15 19:52:00,71.6,43.8,29.81,NW,315,2.5,4.0,37,0.00,,,0.00,WUHU216HW,2013-05-16 00:52:00,
2013-05-15 19:57:00,70.4,43.5,29.81,NW,315,2.0,3.4,38,0.00,,,0.00,WUHU216HW,2013-05-16 00:57:00,
2013-05-15 20:02:00,68.6,43.3,29.81,NW,315,2.9,3.4,40,0.00,,,0.00,WUHU216HW,2013-05-16 01:02:00,
2013-05-15 20:07:00,67.5,42.4,29.81,NW,315,3.4,3.4,40,0.00,,,0.00,WUHU216HW,2013-05-16 01:07:00,
2013-05-15 20:13:00,67.0,41.9,29.81,NW,315,1.8,3.4,40,0.00,,,0.00,WUHU216HW,2013-05-16 01:13:00,
2013-05-15 20:18:00,66.4,41.9,29.81,NW,315,1.6,3.4,41,0.00,,,0.00,WUHU216HW,2013-05-16 01:18:00,
2013-05-15 20:23:00,65.9,42.1,29.81,NW,315,1.8,3.4,42,0.00,,,0.00,WUHU216HW,2013-05-16 01:23:00,
2013-05-15 20:28:00,65.7,42.0,29.81,WNW,293,1.1,2.7,42,0.00,,,0.00,WUHU216HW,2013-05-16 01:28:00,
2013-05-15 20:33:00,65.9,42.1,29.81,WNW,293,0.4,2.0,42,0.00,,,0.00,WUHU216HW,2013-05-16 01:33:00,
2013-05-15 20:39:00,65.9,41.5,29.81,NW,315,0.4,1.3,41,0.00,,,0.00,WUHU216HW,2013-05-16 01:39:00,
2013-05-15 20:44:00,65.0,41.9,29.82,NNW,338,1.1,1.6,43,0.00,,,0.00,WUHU216HW,2013-05-16 01:44:00,
2013-05-15 20:49:00,64.1,42.8,29.82,NW,315,0.2,1.6,46,0.00,,,0.00,WUHU216HW,2013-05-16 01:49:00,
2013-05-15 20:54:00,63.7,41.9,29.82,NW,315,0.0,1.3,45,0.00,,,0.00,WUHU216HW,2013-05-16 01:54:00,
2013-05-15 20:59:00,63.0,42.3,29.82,NW,315,0.7,1.3,47,0.00,,,0.00,WUHU216HW,2013-05-16 01:59:00,
2013-05-15 21:04:00,62.6,42.0,29.83,NW,315,0.0,1.3,47,0.00,,,0.00,WUHU216HW,2013-05-16 02:04:00,
2013-05-15 21:09:00,62.3,41.7,29.83,NW,315,0.0,0.7,47,0.00,,,0.00,WUHU216HW,2013-05-16 02:09:00,
2013-05-15 21:14:00,61.6,42.8,29.82,NW,315,0.0,0.0,50,0.00,,,0.00,WUHU216HW,2013-05-16 02:14:00,
2013-05-15 21:19:00,61.0,41.1,29.83,NW,315,0.0,0.0,48,0.00,,,0.00,WUHU216HW,2013-05-16 02:19:00,
2013-05-15 21:25:00,60.8,41.6,29.83,NW,315,0.0,0.0,49,0.00,,,0.00,WUHU216HW,2013-05-16 02:25:00,
2013-05-15 21:30:00,60.5,42.3,29.83,NW,315,0.0,0.0,51,0.00,,,0.00,WUHU216HW,2013-05-16 02:30:00,
2013-05-15 21:35:00,60.8,42.1,29.83,NW,315,0.0,0.0,50,0.00,,,0.00,WUHU216HW,2013-05-16 02:35:00,
2013-05-15 21:41:00,60.8,41.6,29.83,NW,315,0.0,0.0,49,0.00,,,0.00,WUHU216HW,2013-05-16 02:41:00,
2013-05-15 21:46:00,60.5,41.8,29.83,NW,315,0.0,0.0,50,0.00,,,0.00,WUHU216HW,2013-05-16 02:46:00,
2013-05-15 21:51:00,60.1,40.9,29.83,NW,315,0.0,0.0,49,0.00,,,0.00,WUHU216HW,2013-05-16 02:51:00,
2013-05-15 21:56:00,59.6,41.0,29.83,NW,315,0.0,0.0,50,0.00,,,0.00,WUHU216HW,2013-05-16 02:56:00,
2013-05-15 22:01:00,59.0,41.0,29.83,NW,315,0.0,0.0,51,0.00,,,0.00,WUHU216HW,2013-05-16 03:01:00,
2013-05-15 22:06:00,58.7,41.6,29.83,NW,315,0.0,0.0,53,0.00,,,0.00,WUHU216HW,2013-05-16 03:06:00,
2013-05-15 22:11:00,58.3,41.8,29.83,ENE,68,0.0,0.0,54,0.00,,,0.00,WUHU216HW,2013-05-16 03:11:00,
2013-05-15 22:16:00,58.0,41.4,29.83,ENE,68,0.0,0.0,54,0.00,,,0.00,WUHU216HW,2013-05-16 03:16:00,
2013-05-15 22:21:00,57.6,41.0,29.83,ENE,68,0.0,0.0,54,0.00,,,0.00,WUHU216HW,2013-05-16 03:21:00,
2013-05-15 22:26:00,57.6,41.0,29.83,ENE,68,0.0,0.0,54,0.00,,,0.00,WUHU216HW,2013-05-16 03:26:00,
2013-05-15 22:32:00,57.4,41.9,29.83,ENE,68,0.0,0.0,56,0.00,,,0.00,WUHU216HW,2013-05-16 03:32:00,
2013-05-15 22:37:00,57.1,41.9,29.83,ENE,68,0.0,0.0,57,0.00,,,0.00,WUHU216HW,2013-05-16 03:37:00,
2013-05-15 22:42:00,56.5,42.4,29.83,ENE,68,0.0,0.0,59,0.00,,,0.00,WUHU216HW,2013-05-16 03:42:00,
2013-05-15 22:47:00,56.3,42.7,29.83,ENE,68,0.0,0.0,60,0.00,,,0.00,WUHU216HW,2013-05-16 03:47:00,
2013-05-15 22:52:00,56.2,42.5,29.83,ENE,68,0.0,0.0,60,0.00,,,0.00,WUHU216HW,2013-05-16 03:52:00,
2013-05-15 22:57:00,56.0,42.8,29.83,ENE,68,0.0,0.0,61,0.00,,,0.00,WUHU216HW,2013-05-16 03:57:00,
2013-05-15 23:01:00,55.8,42.9,29.83,ENE,68,0.0,0.0,62,0.00,,,0.00,WUHU216HW,2013-05-16 04:01:00,
2013-05-15 23:06:00,55.6,43.6,29.83,ENE,68,0.0,0.0,64,0.00,,,0.00,WUHU216HW,2013-05-16 04:06:00,
2013-05-15 23:11:00,55.4,42.6,29.83,ENE,68,0.0,0.0,62,0.00,,,0.00,WUHU216HW,2013-05-16 04:11:00,
2013-05-15 23:16:00,55.4,42.6,29.83,ENE,68,0.0,0.0,62,0.00,,,0.00,WUHU216HW,2013-05-16 04:16:00,
2013-05-15 23:21:00,55.1,42.3,29.83,ENE,68,0.0,0.0,62,0.00,,,0.00,WUHU216HW,2013-05-16 04:21:00,
2013-05-15 23:26:00,54.9,42.9,29.83,ENE,68,0.0,0.0,64,0.00,,,0.00,WUHU216HW,2013-05-16 04:26:00,
2013-05-15 23:31:00,54.5,42.6,29.83,ENE,68,0.0,0.0,64,0.00,,,0.00,WUHU216HW,2013-05-16 04:31:00,
2013-05-15 23:36:00,54.4,43.7,29.83,ENE,68,0.0,0.0,67,0.00,,,0.00,WUHU216HW,2013-05-16 04:36:00,
2013-05-15 23:41:00,54.4,44.8,29.83,ENE,68,0.0,0.0,70,0.00,,,0.00,WUHU216HW,2013-05-16 04:41:00,
2013-05-15 23:46:00,54.4,43.2,29.83,ENE,68,0.0,0.0,66,0.00,,,0.00,WUHU216HW,2013-05-16 04:46:00,
2013-05-15 23:51:00,54.2,43.0,29.83,ENE,68,0.0,0.0,66,0.00,,,0.00,WUHU216HW,2013-05-16 04:51:00,
2013-05-15 23:56:00,54.0,42.8,29.83,ENE,68,0.0,0.0,66,0.00,,,0.00,WUHU216HW,2013-05-16 04:56:00,